sensor_id;sensor_type;location;lat;lon;timestamp;temperature;humidity
1337;DHT22;662;48.814;9.318;2024-01-11T00:01:25;-0.50;58.70
1337;DHT22;662;48.814;9.318;2024-01-11T00:03:50;-0.50;58.70
1337;DHT22;662;48.814;9.318;2024-01-11T00:06:16;-0.60;58.70
1337;DHT22;662;48.814;9.318;2024-01-11T00:08:42;-0.60;58.70
1337;DHT22;662;48.814;9.318;2024-01-11T00:11:07;-0.60;58.70
1337;DHT22;662;48.814;9.318;2024-01-11T00:13:33;-0.60;58.70
1337;DHT22;662;48.814;9.318;2024-01-11T00:15:58;-0.60;58.80
1337;DHT22;662;48.814;9.318;2024-01-11T00:18:24;-0.60;58.80
1337;DHT22;662;48.814;9.318;2024-01-11T00:20:50;-0.70;58.70
1337;DHT22;662;48.814;9.318;2024-01-11T00:23:15;-0.70;58.70
1337;DHT22;662;48.814;9.318;2024-01-11T00:25:41;-0.70;58.80
1337;DHT22;662;48.814;9.318;2024-01-11T00:28:06;-0.70;58.80
1337;DHT22;662;48.814;9.318;2024-01-11T00:30:32;-0.80;58.80
1337;DHT22;662;48.814;9.318;2024-01-11T00:32:58;-0.70;58.80
1337;DHT22;662;48.814;9.318;2024-01-11T00:35:23;-0.80;58.80
1337;DHT22;662;48.814;9.318;2024-01-11T00:37:49;-0.80;58.80
1337;DHT22;662;48.814;9.318;2024-01-11T00:40:14;-0.80;58.80
1337;DHT22;662;48.814;9.318;2024-01-11T00:42:40;-0.80;58.80
1337;DHT22;662;48.814;9.318;2024-01-11T00:45:06;-0.80;58.80
1337;DHT22;662;48.814;9.318;2024-01-11T00:47:31;-0.80;58.90
1337;DHT22;662;48.814;9.318;2024-01-11T00:49:57;-0.80;58.90
1337;DHT22;662;48.814;9.318;2024-01-11T00:52:23;-0.80;58.90
1337;DHT22;662;48.814;9.318;2024-01-11T00:54:48;-0.90;58.80
1337;DHT22;662;48.814;9.318;2024-01-11T00:57:14;-0.90;58.80
1337;DHT22;662;48.814;9.318;2024-01-11T00:59:40;-0.90;58.90
1337;DHT22;662;48.814;9.318;2024-01-11T01:02:06;-0.90;58.90
1337;DHT22;662;48.814;9.318;2024-01-11T01:04:31;-0.90;58.80
1337;DHT22;662;48.814;9.318;2024-01-11T01:06:57;-0.90;58.80
1337;DHT22;662;48.814;9.318;2024-01-11T01:09:23;-1.00;58.70
1337;DHT22;662;48.814;9.318;2024-01-11T01:11:48;-1.00;58.80
1337;DHT22;662;48.814;9.318;2024-01-11T01:14:14;-1.00;58.90
1337;DHT22;662;48.814;9.318;2024-01-11T01:16:40;-1.10;58.90
1337;DHT22;662;48.814;9.318;2024-01-11T01:19:05;-1.00;59.00
1337;DHT22;662;48.814;9.318;2024-01-11T01:21:31;-1.10;58.90
1337;DHT22;662;48.814;9.318;2024-01-11T01:23:56;-1.00;59.00
1337;DHT22;662;48.814;9.318;2024-01-11T01:26:22;-1.10;58.90
1337;DHT22;662;48.814;9.318;2024-01-11T01:28:47;-1.10;58.90
1337;DHT22;662;48.814;9.318;2024-01-11T01:31:13;-1.10;59.00
1337;DHT22;662;48.814;9.318;2024-01-11T01:33:40;-1.10;59.00
1337;DHT22;662;48.814;9.318;2024-01-11T01:36:09;-1.20;59.00
1337;DHT22;662;48.814;9.318;2024-01-11T01:38:35;-1.20;59.00
1337;DHT22;662;48.814;9.318;2024-01-11T01:41:00;-1.20;59.00
1337;DHT22;662;48.814;9.318;2024-01-11T01:43:26;-1.20;59.00
1337;DHT22;662;48.814;9.318;2024-01-11T01:45:52;-1.20;59.10
1337;DHT22;662;48.814;9.318;2024-01-11T01:48:18;-1.20;59.10
1337;DHT22;662;48.814;9.318;2024-01-11T01:50:44;-1.30;59.00
1337;DHT22;662;48.814;9.318;2024-01-11T01:53:19;-1.30;59.00
1337;DHT22;662;48.814;9.318;2024-01-11T01:55:45;-1.30;59.00
1337;DHT22;662;48.814;9.318;2024-01-11T01:58:12;-1.30;59.00
1337;DHT22;662;48.814;9.318;2024-01-11T02:00:38;-1.30;59.10
1337;DHT22;662;48.814;9.318;2024-01-11T02:03:06;-1.30;59.20
1337;DHT22;662;48.814;9.318;2024-01-11T02:05:32;-1.30;59.20
1337;DHT22;662;48.814;9.318;2024-01-11T02:07:59;-1.40;59.20
1337;DHT22;662;48.814;9.318;2024-01-11T02:10:27;-1.40;59.20
1337;DHT22;662;48.814;9.318;2024-01-11T02:12:53;-1.40;59.30
1337;DHT22;662;48.814;9.318;2024-01-11T02:15:19;-1.50;59.40
1337;DHT22;662;48.814;9.318;2024-01-11T02:17:45;-1.50;59.60
1337;DHT22;662;48.814;9.318;2024-01-11T02:20:11;-1.40;59.70
1337;DHT22;662;48.814;9.318;2024-01-11T02:22:39;-1.50;59.80
1337;DHT22;662;48.814;9.318;2024-01-11T02:25:06;-1.50;59.90
1337;DHT22;662;48.814;9.318;2024-01-11T02:27:47;-1.50;59.90
1337;DHT22;662;48.814;9.318;2024-01-11T02:30:14;-1.50;60.00
1337;DHT22;662;48.814;9.318;2024-01-11T02:32:39;-1.60;59.90
1337;DHT22;662;48.814;9.318;2024-01-11T02:35:06;-1.60;60.00
1337;DHT22;662;48.814;9.318;2024-01-11T02:37:32;-1.60;60.20
1337;DHT22;662;48.814;9.318;2024-01-11T02:39:58;-1.60;60.40
1337;DHT22;662;48.814;9.318;2024-01-11T02:42:23;-1.50;60.70
1337;DHT22;662;48.814;9.318;2024-01-11T02:44:49;-1.50;60.80
1337;DHT22;662;48.814;9.318;2024-01-11T02:47:15;-1.50;60.70
1337;DHT22;662;48.814;9.318;2024-01-11T02:49:40;-1.50;60.70
1337;DHT22;662;48.814;9.318;2024-01-11T02:52:06;-1.50;60.70
1337;DHT22;662;48.814;9.318;2024-01-11T02:54:31;-1.50;60.70
1337;DHT22;662;48.814;9.318;2024-01-11T02:56:57;-1.50;60.50
1337;DHT22;662;48.814;9.318;2024-01-11T02:59:23;-1.50;60.50
1337;DHT22;662;48.814;9.318;2024-01-11T03:01:49;-1.50;60.40
1337;DHT22;662;48.814;9.318;2024-01-11T03:04:15;-1.50;60.40
1337;DHT22;662;48.814;9.318;2024-01-11T03:06:42;-1.50;60.30
1337;DHT22;662;48.814;9.318;2024-01-11T03:09:07;-1.50;60.30
1337;DHT22;662;48.814;9.318;2024-01-11T03:11:33;-1.50;60.20
1337;DHT22;662;48.814;9.318;2024-01-11T03:13:59;-1.50;60.10
1337;DHT22;662;48.814;9.318;2024-01-11T03:16:24;-1.50;60.10
1337;DHT22;662;48.814;9.318;2024-01-11T03:18:50;-1.50;60.00
1337;DHT22;662;48.814;9.318;2024-01-11T03:21:15;-1.50;60.00
1337;DHT22;662;48.814;9.318;2024-01-11T03:23:41;-1.50;59.90
1337;DHT22;662;48.814;9.318;2024-01-11T03:26:17;-1.50;59.90
1337;DHT22;662;48.814;9.318;2024-01-11T03:28:43;-1.50;60.00
1337;DHT22;662;48.814;9.318;2024-01-11T03:31:09;-1.50;60.10
1337;DHT22;662;48.814;9.318;2024-01-11T03:33:35;-1.50;60.10
1337;DHT22;662;48.814;9.318;2024-01-11T03:36:09;-1.50;60.00
1337;DHT22;662;48.814;9.318;2024-01-11T03:38:35;-1.50;60.00
1337;DHT22;662;48.814;9.318;2024-01-11T03:41:01;-1.60;60.00
1337;DHT22;662;48.814;9.318;2024-01-11T03:43:27;-1.50;60.00
1337;DHT22;662;48.814;9.318;2024-01-11T03:45:52;-1.60;59.90
1337;DHT22;662;48.814;9.318;2024-01-11T03:48:18;-1.60;59.90
1337;DHT22;662;48.814;9.318;2024-01-11T03:50:44;-1.60;60.00
1337;DHT22;662;48.814;9.318;2024-01-11T03:53:10;-1.60;60.10
1337;DHT22;662;48.814;9.318;2024-01-11T03:55:36;-1.60;60.20
1337;DHT22;662;48.814;9.318;2024-01-11T03:58:01;-1.60;60.20
1337;DHT22;662;48.814;9.318;2024-01-11T04:00:27;-1.60;60.30
1337;DHT22;662;48.814;9.318;2024-01-11T04:02:52;-1.60;60.20
1337;DHT22;662;48.814;9.318;2024-01-11T04:05:18;-1.60;60.30
1337;DHT22;662;48.814;9.318;2024-01-11T04:07:44;-1.60;60.20
1337;DHT22;662;48.814;9.318;2024-01-11T04:10:09;-1.60;60.10
1337;DHT22;662;48.814;9.318;2024-01-11T04:12:35;-1.60;60.00
1337;DHT22;662;48.814;9.318;2024-01-11T04:15:02;-1.60;60.00
1337;DHT22;662;48.814;9.318;2024-01-11T04:17:27;-1.60;59.90
1337;DHT22;662;48.814;9.318;2024-01-11T04:19:53;-1.70;59.90
1337;DHT22;662;48.814;9.318;2024-01-11T04:22:18;-1.70;59.90
1337;DHT22;662;48.814;9.318;2024-01-11T04:24:44;-1.70;59.90
1337;DHT22;662;48.814;9.318;2024-01-11T04:27:10;-1.70;60.60
1337;DHT22;662;48.814;9.318;2024-01-11T04:29:36;-1.70;60.00
1337;DHT22;662;48.814;9.318;2024-01-11T04:32:01;-1.70;60.00
1337;DHT22;662;48.814;9.318;2024-01-11T04:34:27;-1.70;59.90
1337;DHT22;662;48.814;9.318;2024-01-11T04:36:53;-1.70;59.90
1337;DHT22;662;48.814;9.318;2024-01-11T04:39:18;-1.80;59.80
1337;DHT22;662;48.814;9.318;2024-01-11T04:41:45;-1.80;59.90
1337;DHT22;662;48.814;9.318;2024-01-11T04:44:10;-1.80;59.80
1337;DHT22;662;48.814;9.318;2024-01-11T04:46:36;-1.80;59.90
1337;DHT22;662;48.814;9.318;2024-01-11T04:49:02;-1.80;59.90
1337;DHT22;662;48.814;9.318;2024-01-11T04:51:27;-1.80;59.80
1337;DHT22;662;48.814;9.318;2024-01-11T04:53:53;-1.80;59.90
1337;DHT22;662;48.814;9.318;2024-01-11T04:56:18;-1.80;59.90
1337;DHT22;662;48.814;9.318;2024-01-11T04:58:45;-1.90;59.80
1337;DHT22;662;48.814;9.318;2024-01-11T05:01:15;-1.90;59.80
1337;DHT22;662;48.814;9.318;2024-01-11T05:03:44;-1.90;59.80
1337;DHT22;662;48.814;9.318;2024-01-11T05:06:18;-1.90;59.80
1337;DHT22;662;48.814;9.318;2024-01-11T05:08:47;-1.90;59.80
1337;DHT22;662;48.814;9.318;2024-01-11T05:11:20;-1.90;59.80
1337;DHT22;662;48.814;9.318;2024-01-11T05:13:46;-1.90;59.80
1337;DHT22;662;48.814;9.318;2024-01-11T05:16:26;-1.90;59.90
1337;DHT22;662;48.814;9.318;2024-01-11T05:18:53;-2.00;59.80
1337;DHT22;662;48.814;9.318;2024-01-11T05:21:20;-2.00;59.90
1337;DHT22;662;48.814;9.318;2024-01-11T05:23:46;-2.00;59.90
1337;DHT22;662;48.814;9.318;2024-01-11T05:26:14;-2.00;59.90
1337;DHT22;662;48.814;9.318;2024-01-11T05:28:39;-2.00;59.90
1337;DHT22;662;48.814;9.318;2024-01-11T05:31:15;-2.00;60.00
1337;DHT22;662;48.814;9.318;2024-01-11T05:33:41;-2.00;60.00
1337;DHT22;662;48.814;9.318;2024-01-11T05:36:07;-2.00;60.00
1337;DHT22;662;48.814;9.318;2024-01-11T05:38:34;-2.00;60.00
1337;DHT22;662;48.814;9.318;2024-01-11T05:41:00;-2.10;60.00
1337;DHT22;662;48.814;9.318;2024-01-11T05:43:25;-2.10;60.00
1337;DHT22;662;48.814;9.318;2024-01-11T05:45:51;-2.10;60.00
1337;DHT22;662;48.814;9.318;2024-01-11T05:48:17;-2.10;60.00
1337;DHT22;662;48.814;9.318;2024-01-11T05:50:45;-2.10;60.00
1337;DHT22;662;48.814;9.318;2024-01-11T05:53:12;-2.10;60.00
1337;DHT22;662;48.814;9.318;2024-01-11T05:55:38;-2.10;60.20
1337;DHT22;662;48.814;9.318;2024-01-11T05:58:04;-2.10;60.20
1337;DHT22;662;48.814;9.318;2024-01-11T06:00:30;-2.00;60.40
1337;DHT22;662;48.814;9.318;2024-01-11T06:02:55;-2.00;60.40
1337;DHT22;662;48.814;9.318;2024-01-11T06:05:21;-2.00;60.50
1337;DHT22;662;48.814;9.318;2024-01-11T06:07:47;-2.00;60.50
1337;DHT22;662;48.814;9.318;2024-01-11T06:10:16;-2.00;60.50
1337;DHT22;662;48.814;9.318;2024-01-11T06:12:42;-2.00;60.60
1337;DHT22;662;48.814;9.318;2024-01-11T06:15:08;-2.00;60.50
1337;DHT22;662;48.814;9.318;2024-01-11T06:17:35;-2.10;60.40
1337;DHT22;662;48.814;9.318;2024-01-11T06:20:01;-2.00;60.50
1337;DHT22;662;48.814;9.318;2024-01-11T06:22:27;-2.00;60.50
1337;DHT22;662;48.814;9.318;2024-01-11T06:24:53;-2.00;60.50
1337;DHT22;662;48.814;9.318;2024-01-11T06:27:18;-2.10;60.40
1337;DHT22;662;48.814;9.318;2024-01-11T06:29:44;-2.00;60.50
1337;DHT22;662;48.814;9.318;2024-01-11T06:32:10;-2.00;60.50
1337;DHT22;662;48.814;9.318;2024-01-11T06:34:35;-2.10;60.40
1337;DHT22;662;48.814;9.318;2024-01-11T06:37:02;-2.00;60.50
1337;DHT22;662;48.814;9.318;2024-01-11T06:39:28;-2.10;60.40
1337;DHT22;662;48.814;9.318;2024-01-11T06:41:55;-2.00;60.60
1337;DHT22;662;48.814;9.318;2024-01-11T06:44:21;-2.00;60.60
1337;DHT22;662;48.814;9.318;2024-01-11T06:46:47;-2.10;60.50
1337;DHT22;662;48.814;9.318;2024-01-11T06:49:12;-2.00;60.50
1337;DHT22;662;48.814;9.318;2024-01-11T06:51:38;-2.10;60.40
1337;DHT22;662;48.814;9.318;2024-01-11T06:54:04;-2.10;60.50
1337;DHT22;662;48.814;9.318;2024-01-11T06:56:30;-2.10;60.60
1337;DHT22;662;48.814;9.318;2024-01-11T06:58:56;-2.10;60.70
1337;DHT22;662;48.814;9.318;2024-01-11T07:01:21;-2.10;60.70
1337;DHT22;662;48.814;9.318;2024-01-11T07:03:48;-2.10;60.80
1337;DHT22;662;48.814;9.318;2024-01-11T07:06:13;-2.00;60.90
1337;DHT22;662;48.814;9.318;2024-01-11T07:08:39;-2.10;60.70
1337;DHT22;662;48.814;9.318;2024-01-11T07:11:05;-2.10;60.70
1337;DHT22;662;48.814;9.318;2024-01-11T07:13:31;-2.10;60.70
1337;DHT22;662;48.814;9.318;2024-01-11T07:15:57;-2.10;60.80
1337;DHT22;662;48.814;9.318;2024-01-11T07:18:25;-2.10;60.80
1337;DHT22;662;48.814;9.318;2024-01-11T07:20:52;-2.10;60.70
1337;DHT22;662;48.814;9.318;2024-01-11T07:23:17;-2.10;60.70
1337;DHT22;662;48.814;9.318;2024-01-11T07:25:43;-2.10;60.70
1337;DHT22;662;48.814;9.318;2024-01-11T07:28:09;-2.00;60.80
1337;DHT22;662;48.814;9.318;2024-01-11T07:30:35;-2.10;60.70
1337;DHT22;662;48.814;9.318;2024-01-11T07:33:00;-2.00;60.70
1337;DHT22;662;48.814;9.318;2024-01-11T07:35:26;-2.10;60.60
1337;DHT22;662;48.814;9.318;2024-01-11T07:37:52;-2.10;60.60
1337;DHT22;662;48.814;9.318;2024-01-11T07:40:17;-2.10;60.60
1337;DHT22;662;48.814;9.318;2024-01-11T07:42:43;-2.10;60.60
1337;DHT22;662;48.814;9.318;2024-01-11T07:45:09;-2.10;60.60
1337;DHT22;662;48.814;9.318;2024-01-11T07:47:39;-2.10;60.50
1337;DHT22;662;48.814;9.318;2024-01-11T07:50:06;-2.10;60.50
1337;DHT22;662;48.814;9.318;2024-01-11T07:52:38;-2.10;60.50
1337;DHT22;662;48.814;9.318;2024-01-11T07:55:05;-2.10;60.50
1337;DHT22;662;48.814;9.318;2024-01-11T07:57:38;-2.10;60.40
1337;DHT22;662;48.814;9.318;2024-01-11T08:00:05;-2.10;60.50
1337;DHT22;662;48.814;9.318;2024-01-11T08:02:32;-2.10;60.50
1337;DHT22;662;48.814;9.318;2024-01-11T08:04:59;-2.00;60.60
1337;DHT22;662;48.814;9.318;2024-01-11T08:07:26;-2.00;60.60
1337;DHT22;662;48.814;9.318;2024-01-11T08:09:51;-2.00;60.60
1337;DHT22;662;48.814;9.318;2024-01-11T08:12:17;-2.00;60.60
1337;DHT22;662;48.814;9.318;2024-01-11T08:14:43;-2.00;60.60
1337;DHT22;662;48.814;9.318;2024-01-11T08:17:09;-2.00;60.60
1337;DHT22;662;48.814;9.318;2024-01-11T08:19:35;-1.90;60.80
1337;DHT22;662;48.814;9.318;2024-01-11T08:22:00;-1.90;60.70
1337;DHT22;662;48.814;9.318;2024-01-11T08:24:26;-1.90;60.80
1337;DHT22;662;48.814;9.318;2024-01-11T08:26:52;-1.90;60.80
1337;DHT22;662;48.814;9.318;2024-01-11T08:29:18;-1.90;60.80
1337;DHT22;662;48.814;9.318;2024-01-11T08:31:48;-1.80;60.90
1337;DHT22;662;48.814;9.318;2024-01-11T08:34:13;-1.70;61.10
1337;DHT22;662;48.814;9.318;2024-01-11T08:36:39;-1.70;61.10
1337;DHT22;662;48.814;9.318;2024-01-11T08:39:05;-1.60;61.20
1337;DHT22;662;48.814;9.318;2024-01-11T08:41:32;-1.60;61.10
1337;DHT22;662;48.814;9.318;2024-01-11T08:43:58;-1.50;61.10
1337;DHT22;662;48.814;9.318;2024-01-11T08:46:28;-1.50;61.00
1337;DHT22;662;48.814;9.318;2024-01-11T08:48:54;-1.50;61.00
1337;DHT22;662;48.814;9.318;2024-01-11T08:51:24;-1.40;61.10
1337;DHT22;662;48.814;9.318;2024-01-11T08:53:49;-1.40;61.00
1337;DHT22;662;48.814;9.318;2024-01-11T08:56:15;-1.40;61.10
1337;DHT22;662;48.814;9.318;2024-01-11T08:58:42;-1.40;61.00
1337;DHT22;662;48.814;9.318;2024-01-11T09:01:08;-1.30;61.10
1337;DHT22;662;48.814;9.318;2024-01-11T09:03:34;-1.30;61.10
1337;DHT22;662;48.814;9.318;2024-01-11T09:06:01;-1.30;61.20
1337;DHT22;662;48.814;9.318;2024-01-11T09:08:28;-1.20;61.30
1337;DHT22;662;48.814;9.318;2024-01-11T09:10:53;-1.20;61.20
1337;DHT22;662;48.814;9.318;2024-01-11T09:13:19;-1.20;61.20
1337;DHT22;662;48.814;9.318;2024-01-11T09:15:44;-1.20;61.10
1337;DHT22;662;48.814;9.318;2024-01-11T09:18:12;-1.10;61.20
1337;DHT22;662;48.814;9.318;2024-01-11T09:20:37;-1.10;61.20
1337;DHT22;662;48.814;9.318;2024-01-11T09:23:03;-1.00;61.30
1337;DHT22;662;48.814;9.318;2024-01-11T09:25:31;-1.00;61.40
1337;DHT22;662;48.814;9.318;2024-01-11T09:27:57;-0.90;61.40
1337;DHT22;662;48.814;9.318;2024-01-11T09:30:23;-0.90;61.40
1337;DHT22;662;48.814;9.318;2024-01-11T09:32:49;-0.80;61.50
1337;DHT22;662;48.814;9.318;2024-01-11T09:35:14;-0.80;61.50
1337;DHT22;662;48.814;9.318;2024-01-11T09:37:40;-0.70;61.50
1337;DHT22;662;48.814;9.318;2024-01-11T09:40:06;-0.70;61.50
1337;DHT22;662;48.814;9.318;2024-01-11T09:42:39;-0.70;61.40
1337;DHT22;662;48.814;9.318;2024-01-11T09:45:09;-0.60;61.50
1337;DHT22;662;48.814;9.318;2024-01-11T09:47:36;-0.60;61.40
1337;DHT22;662;48.814;9.318;2024-01-11T09:50:06;-0.50;61.40
1337;DHT22;662;48.814;9.318;2024-01-11T09:52:32;-0.50;61.40
1337;DHT22;662;48.814;9.318;2024-01-11T09:54:59;-0.50;61.40
1337;DHT22;662;48.814;9.318;2024-01-11T09:57:30;-0.40;61.40
1337;DHT22;662;48.814;9.318;2024-01-11T09:59:57;-0.40;61.40
1337;DHT22;662;48.814;9.318;2024-01-11T10:02:23;-0.40;61.40
1337;DHT22;662;48.814;9.318;2024-01-11T10:04:50;-0.30;61.60
1337;DHT22;662;48.814;9.318;2024-01-11T10:07:23;-0.30;61.60
1337;DHT22;662;48.814;9.318;2024-01-11T10:09:49;-0.30;61.60
1337;DHT22;662;48.814;9.318;2024-01-11T10:12:15;-0.20;61.60
1337;DHT22;662;48.814;9.318;2024-01-11T10:14:42;-0.20;61.40
1337;DHT22;662;48.814;9.318;2024-01-11T10:17:08;-0.10;61.50
1337;DHT22;662;48.814;9.318;2024-01-11T10:19:33;-0.10;61.40
1337;DHT22;662;48.814;9.318;2024-01-11T10:21:59;-0.10;61.30
1337;DHT22;662;48.814;9.318;2024-01-11T10:24:25;-0.10;61.10
1337;DHT22;662;48.814;9.318;2024-01-11T10:26:57;0.00;61.10
1337;DHT22;662;48.814;9.318;2024-01-11T10:29:33;0.00;61.10
1337;DHT22;662;48.814;9.318;2024-01-11T10:31:58;0.00;60.90
1337;DHT22;662;48.814;9.318;2024-01-11T10:34:24;0.10;61.00
1337;DHT22;662;48.814;9.318;2024-01-11T10:36:50;0.10;60.80
1337;DHT22;662;48.814;9.318;2024-01-11T10:39:17;0.20;60.80
1337;DHT22;662;48.814;9.318;2024-01-11T10:41:47;0.30;60.80
1337;DHT22;662;48.814;9.318;2024-01-11T10:44:20;0.30;60.60
1337;DHT22;662;48.814;9.318;2024-01-11T10:46:49;0.30;60.50
1337;DHT22;662;48.814;9.318;2024-01-11T10:49:17;0.40;60.30
1337;DHT22;662;48.814;9.318;2024-01-11T10:51:49;0.40;60.30
1337;DHT22;662;48.814;9.318;2024-01-11T10:54:20;0.50;60.20
1337;DHT22;662;48.814;9.318;2024-01-11T10:56:47;0.50;60.10
1337;DHT22;662;48.814;9.318;2024-01-11T10:59:13;0.50;60.00
1337;DHT22;662;48.814;9.318;2024-01-11T11:01:41;0.60;60.10
1337;DHT22;662;48.814;9.318;2024-01-11T11:04:07;0.60;60.00
1337;DHT22;662;48.814;9.318;2024-01-11T11:06:34;0.70;60.00
1337;DHT22;662;48.814;9.318;2024-01-11T11:09:00;0.70;60.00
1337;DHT22;662;48.814;9.318;2024-01-11T11:11:27;0.70;59.90
1337;DHT22;662;48.814;9.318;2024-01-11T11:13:54;0.80;59.90
1337;DHT22;662;48.814;9.318;2024-01-11T11:16:20;0.80;59.80
1337;DHT22;662;48.814;9.318;2024-01-11T11:18:46;0.90;59.80
1337;DHT22;662;48.814;9.318;2024-01-11T11:21:12;0.90;59.70
1337;DHT22;662;48.814;9.318;2024-01-11T11:23:38;0.90;59.70
1337;DHT22;662;48.814;9.318;2024-01-11T11:26:06;1.00;59.70
1337;DHT22;662;48.814;9.318;2024-01-11T11:28:33;1.00;59.60
1337;DHT22;662;48.814;9.318;2024-01-11T11:31:00;1.00;59.50
1337;DHT22;662;48.814;9.318;2024-01-11T11:33:29;1.10;59.50
1337;DHT22;662;48.814;9.318;2024-01-11T11:35:58;1.10;59.40
1337;DHT22;662;48.814;9.318;2024-01-11T11:38:27;1.10;59.30
1337;DHT22;662;48.814;9.318;2024-01-11T11:40:55;1.20;59.40
1337;DHT22;662;48.814;9.318;2024-01-11T11:43:22;1.20;59.30
1337;DHT22;662;48.814;9.318;2024-01-11T11:45:49;1.30;59.30
1337;DHT22;662;48.814;9.318;2024-01-11T11:51:11;1.30;59.20
1337;DHT22;662;48.814;9.318;2024-01-11T11:53:38;1.40;59.20
1337;DHT22;662;48.814;9.318;2024-01-11T11:56:05;1.40;59.10
1337;DHT22;662;48.814;9.318;2024-01-11T11:58:33;1.50;59.20
1337;DHT22;662;48.814;9.318;2024-01-11T12:00:59;1.50;59.10
1337;DHT22;662;48.814;9.318;2024-01-11T12:03:45;1.50;59.00
1337;DHT22;662;48.814;9.318;2024-01-11T12:06:18;1.50;58.90
1337;DHT22;662;48.814;9.318;2024-01-11T12:08:45;1.60;58.90
1337;DHT22;662;48.814;9.318;2024-01-11T12:11:19;1.60;58.80
1337;DHT22;662;48.814;9.318;2024-01-11T12:13:46;1.70;58.80
1337;DHT22;662;48.814;9.318;2024-01-11T12:16:12;1.70;58.70
1337;DHT22;662;48.814;9.318;2024-01-11T12:18:39;1.70;58.60
1337;DHT22;662;48.814;9.318;2024-01-11T12:21:04;1.80;58.70
1337;DHT22;662;48.814;9.318;2024-01-11T12:23:31;1.80;58.60
1337;DHT22;662;48.814;9.318;2024-01-11T12:25:58;1.90;58.60
1337;DHT22;662;48.814;9.318;2024-01-11T12:28:26;1.90;58.50
1337;DHT22;662;48.814;9.318;2024-01-11T12:30:51;1.90;58.50
1337;DHT22;662;48.814;9.318;2024-01-11T12:33:18;1.90;58.40
1337;DHT22;662;48.814;9.318;2024-01-11T12:35:44;2.00;58.30
1337;DHT22;662;48.814;9.318;2024-01-11T12:38:10;2.00;58.30
1337;DHT22;662;48.814;9.318;2024-01-11T12:40:36;2.00;58.20
1337;DHT22;662;48.814;9.318;2024-01-11T12:43:08;2.00;58.20
1337;DHT22;662;48.814;9.318;2024-01-11T12:45:36;2.10;58.20
1337;DHT22;662;48.814;9.318;2024-01-11T12:48:02;2.10;58.20
1337;DHT22;662;48.814;9.318;2024-01-11T12:50:31;2.10;58.10
1337;DHT22;662;48.814;9.318;2024-01-11T12:53:13;2.20;58.10
1337;DHT22;662;48.814;9.318;2024-01-11T12:55:47;2.20;58.00
1337;DHT22;662;48.814;9.318;2024-01-11T12:58:13;2.20;58.00
1337;DHT22;662;48.814;9.318;2024-01-11T13:00:44;2.20;58.40
1337;DHT22;662;48.814;9.318;2024-01-11T13:03:10;2.30;57.80
1337;DHT22;662;48.814;9.318;2024-01-11T13:05:36;2.30;57.80
1337;DHT22;662;48.814;9.318;2024-01-11T13:08:02;2.30;57.70
1337;DHT22;662;48.814;9.318;2024-01-11T13:10:31;2.30;57.60
1337;DHT22;662;48.814;9.318;2024-01-11T13:12:58;2.40;57.60
1337;DHT22;662;48.814;9.318;2024-01-11T13:15:24;2.40;57.60
1337;DHT22;662;48.814;9.318;2024-01-11T13:17:50;2.40;57.50
1337;DHT22;662;48.814;9.318;2024-01-11T13:20:15;2.40;57.50
1337;DHT22;662;48.814;9.318;2024-01-11T13:22:41;2.50;57.50
1337;DHT22;662;48.814;9.318;2024-01-11T13:25:07;2.50;57.40
1337;DHT22;662;48.814;9.318;2024-01-11T13:27:33;2.50;57.40
1337;DHT22;662;48.814;9.318;2024-01-11T13:29:58;2.50;57.40
1337;DHT22;662;48.814;9.318;2024-01-11T13:32:24;2.60;57.30
1337;DHT22;662;48.814;9.318;2024-01-11T13:34:50;2.60;57.20
1337;DHT22;662;48.814;9.318;2024-01-11T13:37:19;2.60;57.10
1337;DHT22;662;48.814;9.318;2024-01-11T13:39:45;2.60;57.00
1337;DHT22;662;48.814;9.318;2024-01-11T13:42:11;2.60;57.50
1337;DHT22;662;48.814;9.318;2024-01-11T13:44:38;2.70;57.10
1337;DHT22;662;48.814;9.318;2024-01-11T13:47:04;2.70;57.00
1337;DHT22;662;48.814;9.318;2024-01-11T13:49:30;2.70;57.00
1337;DHT22;662;48.814;9.318;2024-01-11T13:51:56;2.70;57.00
1337;DHT22;662;48.814;9.318;2024-01-11T13:54:22;2.70;57.00
1337;DHT22;662;48.814;9.318;2024-01-11T13:56:48;2.70;56.90
1337;DHT22;662;48.814;9.318;2024-01-11T13:59:14;2.70;56.90
1337;DHT22;662;48.814;9.318;2024-01-11T14:01:40;2.70;56.90
1337;DHT22;662;48.814;9.318;2024-01-11T14:04:05;2.70;56.90
1337;DHT22;662;48.814;9.318;2024-01-11T14:06:31;2.70;56.90
1337;DHT22;662;48.814;9.318;2024-01-11T14:08:57;2.70;56.90
1337;DHT22;662;48.814;9.318;2024-01-11T14:11:22;2.70;56.80
1337;DHT22;662;48.814;9.318;2024-01-11T14:13:48;2.70;56.90
1337;DHT22;662;48.814;9.318;2024-01-11T14:16:14;2.70;56.90
1337;DHT22;662;48.814;9.318;2024-01-11T14:18:41;2.70;56.90
1337;DHT22;662;48.814;9.318;2024-01-11T14:21:07;2.70;56.90
1337;DHT22;662;48.814;9.318;2024-01-11T14:23:35;2.70;56.90
1337;DHT22;662;48.814;9.318;2024-01-11T14:26:00;2.80;56.90
1337;DHT22;662;48.814;9.318;2024-01-11T14:28:26;2.80;57.00
1337;DHT22;662;48.814;9.318;2024-01-11T14:30:51;2.70;56.90
1337;DHT22;662;48.814;9.318;2024-01-11T14:33:17;2.80;56.90
1337;DHT22;662;48.814;9.318;2024-01-11T14:35:44;2.80;56.90
1337;DHT22;662;48.814;9.318;2024-01-11T14:38:10;2.70;56.80
1337;DHT22;662;48.814;9.318;2024-01-11T14:40:35;2.80;56.90
1337;DHT22;662;48.814;9.318;2024-01-11T14:43:01;2.70;56.80
1337;DHT22;662;48.814;9.318;2024-01-11T14:45:26;2.70;56.80
1337;DHT22;662;48.814;9.318;2024-01-11T14:47:52;2.70;56.80
1337;DHT22;662;48.814;9.318;2024-01-11T14:50:18;2.70;56.90
1337;DHT22;662;48.814;9.318;2024-01-11T14:52:45;2.70;56.90
1337;DHT22;662;48.814;9.318;2024-01-11T14:55:10;2.70;56.90
1337;DHT22;662;48.814;9.318;2024-01-11T14:57:38;2.70;56.90
1337;DHT22;662;48.814;9.318;2024-01-11T15:00:05;2.60;56.90
1337;DHT22;662;48.814;9.318;2024-01-11T15:02:33;2.60;56.90
1337;DHT22;662;48.814;9.318;2024-01-11T15:04:59;2.60;56.90
1337;DHT22;662;48.814;9.318;2024-01-11T15:07:25;2.60;56.90
1337;DHT22;662;48.814;9.318;2024-01-11T15:09:51;2.50;56.90
1337;DHT22;662;48.814;9.318;2024-01-11T15:12:16;2.50;56.90
1337;DHT22;662;48.814;9.318;2024-01-11T15:14:42;2.50;57.00
1337;DHT22;662;48.814;9.318;2024-01-11T15:17:08;2.50;57.00
1337;DHT22;662;48.814;9.318;2024-01-11T15:19:34;2.40;56.90
1337;DHT22;662;48.814;9.318;2024-01-11T15:21:59;2.40;56.90
1337;DHT22;662;48.814;9.318;2024-01-11T15:24:25;2.40;56.90
1337;DHT22;662;48.814;9.318;2024-01-11T15:26:53;2.40;57.00
1337;DHT22;662;48.814;9.318;2024-01-11T15:29:18;2.40;57.00
1337;DHT22;662;48.814;9.318;2024-01-11T15:31:44;2.40;57.10
1337;DHT22;662;48.814;9.318;2024-01-11T15:34:14;2.30;57.00
1337;DHT22;662;48.814;9.318;2024-01-11T15:36:40;2.30;57.10
1337;DHT22;662;48.814;9.318;2024-01-11T15:39:06;2.30;57.20
1337;DHT22;662;48.814;9.318;2024-01-11T15:41:32;2.30;57.20
1337;DHT22;662;48.814;9.318;2024-01-11T15:43:58;2.30;57.20
1337;DHT22;662;48.814;9.318;2024-01-11T15:46:24;2.20;57.20
1337;DHT22;662;48.814;9.318;2024-01-11T15:48:51;2.20;57.20
1337;DHT22;662;48.814;9.318;2024-01-11T15:51:17;2.20;57.30
1337;DHT22;662;48.814;9.318;2024-01-11T15:53:43;2.20;57.30
1337;DHT22;662;48.814;9.318;2024-01-11T15:56:09;2.10;57.30
1337;DHT22;662;48.814;9.318;2024-01-11T15:58:35;2.10;57.40
1337;DHT22;662;48.814;9.318;2024-01-11T16:01:00;2.10;57.40
1337;DHT22;662;48.814;9.318;2024-01-11T16:03:26;2.10;57.40
1337;DHT22;662;48.814;9.318;2024-01-11T16:05:51;2.00;57.40
1337;DHT22;662;48.814;9.318;2024-01-11T16:08:17;2.00;57.50
1337;DHT22;662;48.814;9.318;2024-01-11T16:10:42;2.00;57.60
1337;DHT22;662;48.814;9.318;2024-01-11T16:13:08;1.90;57.50
1337;DHT22;662;48.814;9.318;2024-01-11T16:15:33;1.90;58.00
1337;DHT22;662;48.814;9.318;2024-01-11T16:18:00;1.90;57.60
1337;DHT22;662;48.814;9.318;2024-01-11T16:20:26;1.80;57.50
1337;DHT22;662;48.814;9.318;2024-01-11T16:22:52;1.80;57.50